Time;durP1;ratioP1;P1;durP2;ratioP2;P2;SDS_P1;SDS_P2;PMS_P1;PMS_P2;Temp;Humidity;BMP_temperature;BMP_pressure;BME280_temperature;BME280_humidity;BME280_pressure;Samples;Min_cycle;Max_cycle;Signal;HPM_P1;HPM_P2
2021/12/04 00:02:21;;;;;;;24.48;16.83;;;4.50;99.90;;;;;;5138090;27;20051;-75
2021/12/04 00:04:49;;;;;;;27.95;17.33;;;4.50;99.90;;;;;;5156068;27;20095;-76
2021/12/04 00:07:16;;;;;;;24.48;16.83;;;4.50;99.90;;;;;;5144378;27;20106;-76
2021/12/04 00:09:45;;;;;;;24.88;16.38;;;4.50;99.90;;;;;;5137082;27;20047;-76
2021/12/04 00:12:11;;;;;;;26.05;16.98;;;4.50;99.90;;;;;;5155229;27;20046;-76
2021/12/04 00:14:37;;;;;;;23.77;16.33;;;4.50;99.90;;;;;;5155871;27;20050;-75
2021/12/04 00:17:05;;;;;;;23.73;16.95;;;4.50;99.90;;;;;;5154891;27;20491;-76
2021/12/04 00:19:31;;;;;;;23.58;16.02;;;4.50;99.90;;;;;;5155912;27;20038;-76
2021/12/04 00:21:58;;;;;;;24.95;17.02;;;4.50;99.90;;;;;;5154567;27;20099;-76
2021/12/04 00:24:25;;;;;;;25.10;16.17;;;4.50;99.90;;;;;;5155562;27;20050;-76
2021/12/04 00:26:52;;;;;;;19.05;14.10;;;4.50;99.90;;;;;;5136960;27;20047;-76
2021/12/04 00:29:18;;;;;;;23.55;15.95;;;4.50;99.90;;;;;;5154972;27;20502;-76
2021/12/04 00:32:32;;;;;;;20.67;14.50;;;4.50;99.90;;;;;;5155193;27;20436;-76
2021/12/04 00:34:33;;;;;;;22.00;15.48;;;4.50;99.90;;;;;;5143800;27;20050;-76
2021/12/04 00:37:45;;;;;;;19.27;14.35;;;4.50;99.90;;;;;;5154733;27;20407;-75
2021/12/04 00:50:48;;;;;;;17.58;13.38;;;4.50;99.90;;;;;;5155696;27;20050;-76
2021/12/04 00:53:14;;;;;;;18.25;12.85;;;4.40;99.90;;;;;;5154438;27;20498;-76
2021/12/04 00:55:39;;;;;;;15.95;12.20;;;4.50;99.90;;;;;;5132553;27;20058;-76
2021/12/04 00:58:05;;;;;;;18.33;13.30;;;4.50;99.90;;;;;;5133979;27;20047;-76
2021/12/04 01:00:31;;;;;;;19.15;13.90;;;4.50;99.90;;;;;;5139966;27;20042;-76
2021/12/04 01:02:56;;;;;;;16.50;13.02;;;4.50;99.90;;;;;;5154868;27;20042;-76
2021/12/04 01:05:22;;;;;;;17.08;12.45;;;4.50;99.90;;;;;;5135775;27;20117;-76
2021/12/04 01:07:48;;;;;;;15.32;12.18;;;4.50;99.90;;;;;;5154458;27;20045;-76
2021/12/04 01:10:14;;;;;;;15.75;11.93;;;4.50;99.90;;;;;;5139390;27;20043;-76
2021/12/04 01:12:39;;;;;;;14.40;11.70;;;4.50;99.90;;;;;;5133899;27;20088;-76
2021/12/04 01:15:06;;;;;;;14.88;11.45;;;4.50;99.90;;;;;;5142743;27;20078;-75
2021/12/04 01:17:32;;;;;;;14.88;12.00;;;4.50;99.90;;;;;;5154032;27;20051;-77
2021/12/04 01:19:58;;;;;;;14.38;11.13;;;4.50;99.90;;;;;;5154596;27;20038;-76
2021/12/04 01:22:25;;;;;;;14.40;11.85;;;4.50;99.90;;;;;;5153971;27;20125;-76
2021/12/04 01:24:50;;;;;;;13.48;10.75;;;4.50;99.90;;;;;;5154774;27;20054;-76
2021/12/04 01:27:16;;;;;;;13.90;11.18;;;4.50;99.90;;;;;;5134826;27;20045;-76
2021/12/04 01:29:42;;;;;;;14.70;10.88;;;4.50;99.90;;;;;;5134210;27;20091;-76
2021/12/04 01:32:09;;;;;;;14.52;11.32;;;4.50;99.90;;;;;;5151997;27;20039;-76
2021/12/04 01:34:35;;;;;;;14.18;11.27;;;4.40;99.90;;;;;;5154216;27;20046;-76
2021/12/04 01:37:03;;;;;;;14.48;11.05;;;4.50;99.90;;;;;;5154106;27;20061;-76
2021/12/04 01:39:29;;;;;;;12.40;10.45;;;4.50;99.90;;;;;;5153469;27;20050;-76
2021/12/04 01:41:54;;;;;;;13.43;10.43;;;4.50;99.90;;;;;;5154269;27;20042;-75
2021/12/04 01:44:20;;;;;;;12.80;10.88;;;4.50;99.90;;;;;;5153682;27;20098;-76
2021/12/04 01:46:46;;;;;;;12.95;9.95;;;4.50;99.90;;;;;;5154132;27;20085;-76
2021/12/04 01:49:12;;;;;;;13.75;10.98;;;4.50;99.90;;;;;;5153175;27;20074;-76
2021/12/04 01:51:37;;;;;;;13.10;10.35;;;4.50;99.90;;;;;;5147912;27;20495;-76
2021/12/04 01:54:04;;;;;;;13.82;11.45;;;4.50;99.90;;;;;;5154354;27;20042;-76
2021/12/04 01:56:31;;;;;;;15.27;11.32;;;4.50;99.90;;;;;;5153573;27;20047;-76
2021/12/04 01:58:57;;;;;;;14.75;11.15;;;4.50;99.90;;;;;;5153610;27;20046;-75
2021/12/04 02:01:23;;;;;;;14.07;11.30;;;4.50;99.90;;;;;;5153141;27;20448;-76
2021/12/04 02:03:49;;;;;;;13.90;11.43;;;4.50;99.90;;;;;;5153634;27;20039;-76
2021/12/04 02:06:15;;;;;;;12.88;10.90;;;4.50;99.90;;;;;;5153111;27;20495;-76
2021/12/04 02:08:42;;;;;;;15.43;12.20;;;4.50;99.90;;;;;;5154221;27;20051;-76
2021/12/04 02:11:08;;;;;;;14.00;11.27;;;4.50;99.90;;;;;;5152715;27;20046;-74
2021/12/04 02:13:34;;;;;;;13.43;11.00;;;4.40;99.90;;;;;;5135761;27;20039;-75
2021/12/04 02:16:03;;;;;;;14.50;10.80;;;4.40;99.90;;;;;;5153552;27;20495;-76
2021/12/04 02:18:30;;;;;;;13.15;10.82;;;4.40;99.90;;;;;;5153241;27;20042;-76
2021/12/04 02:20:56;;;;;;;14.30;11.32;;;4.40;99.90;;;;;;5153512;27;20108;-76
2021/12/04 02:23:22;;;;;;;12.90;9.93;;;4.40;99.90;;;;;;5138224;27;20499;-76
2021/12/04 02:25:47;;;;;;;12.13;9.93;;;4.50;99.90;;;;;;5158314;27;20119;-76
2021/12/04 02:28:13;;;;;;;11.68;9.63;;;4.50;99.90;;;;;;5139105;27;20135;-75
2021/12/04 02:30:43;;;;;;;13.02;10.77;;;4.40;99.90;;;;;;5157013;27;20095;-75
2021/12/04 02:33:12;;;;;;;12.15;10.13;;;4.40;99.90;;;;;;5138371;27;20038;-74
2021/12/04 02:35:51;;;;;;;12.05;9.70;;;4.40;99.90;;;;;;5158200;27;20095;-74
2021/12/04 02:38:18;;;;;;;11.95;10.15;;;4.40;99.90;;;;;;5136849;27;20047;-75
2021/12/04 02:40:46;;;;;;;11.15;9.52;;;4.40;99.90;;;;;;5138772;27;20403;-75
2021/12/04 02:43:12;;;;;;;11.85;10.07;;;4.40;99.90;;;;;;5156656;27;20050;-74
2021/12/04 02:45:39;;;;;;;11.35;9.40;;;4.40;99.90;;;;;;5158340;27;20391;-76
2021/12/04 02:48:05;;;;;;;12.80;9.50;;;4.40;99.90;;;;;;5157691;27;20046;-76
2021/12/04 02:50:31;;;;;;;12.75;9.95;;;4.40;99.90;;;;;;5138842;27;20072;-76
2021/12/04 02:52:56;;;;;;;11.93;9.32;;;4.40;99.90;;;;;;5156685;27;20038;-76
2021/12/04 02:55:22;;;;;;;11.43;9.65;;;4.40;99.90;;;;;;5156799;27;20050;-76
2021/12/04 02:57:48;;;;;;;11.50;9.20;;;4.50;99.90;;;;;;5157380;27;20081;-76
2021/12/04 03:00:16;;;;;;;11.02;9.15;;;4.40;99.90;;;;;;5156970;27;20039;-74
2021/12/04 03:02:43;;;;;;;11.63;9.65;;;4.40;99.90;;;;;;5151460;27;20046;-76
2021/12/04 03:05:10;;;;;;;12.98;9.68;;;4.40;99.90;;;;;;5157643;27;20459;-75
2021/12/04 03:07:36;;;;;;;10.70;9.15;;;4.40;99.90;;;;;;5156308;27;20070;-76
2021/12/04 03:10:03;;;;;;;12.10;9.70;;;4.50;99.90;;;;;;5156939;27;20138;-76
2021/12/04 03:12:29;;;;;;;11.63;9.27;;;4.40;99.90;;;;;;5138376;27;20043;-76
2021/12/04 03:14:55;;;;;;;11.82;9.52;;;4.40;99.90;;;;;;5156326;27;20054;-76
2021/12/04 03:17:22;;;;;;;12.65;10.00;;;4.40;99.90;;;;;;5154792;27;20055;-77
2021/12/04 03:19:50;;;;;;;12.38;10.18;;;4.40;99.90;;;;;;5154794;27;20572;-76
2021/12/04 03:22:18;;;;;;;12.77;9.88;;;4.40;99.90;;;;;;5156529;27;20050;-73
2021/12/04 03:24:44;;;;;;;12.27;9.27;;;4.40;99.90;;;;;;5156675;27;20154;-76
2021/12/04 03:27:11;;;;;;;13.23;10.43;;;4.40;99.90;;;;;;5155922;27;20081;-75
2021/12/04 03:29:55;;;;;;;13.30;9.77;;;4.40;99.90;;;;;;5136706;27;20121;-76
2021/12/04 03:42:47;;;;;;;12.85;9.55;;;4.40;99.90;;;;;;5156458;27;20099;-76
2021/12/04 03:45:13;;;;;;;14.20;9.98;;;4.40;99.90;;;;;;5156331;27;20050;-76
2021/12/04 03:47:45;;;;;;;13.15;10.15;;;4.40;99.90;;;;;;5155364;27;20046;-75
2021/12/04 03:50:12;;;;;;;13.63;10.43;;;4.40;99.90;;;;;;5136590;27;20133;-76
2021/12/04 03:52:38;;;;;;;14.75;10.65;;;4.40;99.90;;;;;;5132896;27;20620;-75
2021/12/04 03:55:06;;;;;;;13.75;10.40;;;4.40;99.90;;;;;;5138296;27;20047;-76
2021/12/04 03:57:33;;;;;;;13.32;9.93;;;4.40;99.90;;;;;;5154522;27;20114;-75
2021/12/04 04:00:02;;;;;;;13.55;10.15;;;4.40;99.90;;;;;;5121116;27;20479;-76
2021/12/04 04:02:28;;;;;;;12.80;10.13;;;4.40;99.90;;;;;;5154888;27;20453;-76
2021/12/04 04:04:55;;;;;;;13.85;9.70;;;4.40;99.90;;;;;;5155966;27;20501;-76
2021/12/04 04:07:21;;;;;;;12.88;9.82;;;4.40;99.90;;;;;;5137392;27;20134;-74
2021/12/04 04:09:47;;;;;;;13.43;10.10;;;4.40;99.90;;;;;;5155915;27;20070;-76
2021/12/04 04:12:13;;;;;;;12.65;9.90;;;4.40;99.90;;;;;;5155531;27;20470;-76
2021/12/04 04:14:39;;;;;;;13.65;9.80;;;4.40;99.90;;;;;;5155583;27;20395;-76
2021/12/04 04:17:05;;;;;;;13.43;10.40;;;4.40;99.90;;;;;;5154094;27;20130;-76
2021/12/04 04:19:31;;;;;;;14.68;9.68;;;4.40;99.90;;;;;;5154944;27;20555;-75
2021/12/04 04:21:58;;;;;;;13.07;9.65;;;4.40;99.90;;;;;;5154942;27;20039;-76
2021/12/04 04:24:28;;;;;;;13.90;9.85;;;4.40;99.90;;;;;;5155640;27;20110;-74
2021/12/04 04:26:54;;;;;;;11.75;9.68;;;4.40;99.90;;;;;;5156130;27;20046;-76
2021/12/04 04:29:20;;;;;;;13.27;9.75;;;4.40;99.90;;;;;;5155485;27;20125;-76
2021/12/04 04:31:48;;;;;;;12.90;10.00;;;4.40;99.90;;;;;;5154692;27;20175;-76
2021/12/04 04:34:35;;;;;;;12.52;10.13;;;4.40;99.90;;;;;;5155140;27;20058;-76
2021/12/04 04:37:18;;;;;;;12.55;10.07;;;4.40;99.90;;;;;;5129388;27;20051;-76
2021/12/04 05:12:35;;;;;;;14.88;10.73;;;4.40;99.90;;;;;;5154827;27;20050;-74
2021/12/04 05:15:10;;;;;;;14.43;10.98;;;4.40;99.90;;;;;;5153610;27;20535;-75
2021/12/04 05:17:55;;;;;;;15.93;11.93;;;4.40;99.90;;;;;;5154134;27;20559;-75
2021/12/04 05:20:32;;;;;;;16.02;11.30;;;4.40;99.90;;;;;;5136556;27;20058;-76
2021/12/04 05:22:58;;;;;;;16.35;11.20;;;4.40;99.90;;;;;;5132996;27;20043;-76
2021/12/04 05:25:24;;;;;;;17.10;12.30;;;4.40;99.90;;;;;;5144314;27;20074;-76
2021/12/04 05:27:50;;;;;;;17.13;11.95;;;4.40;99.90;;;;;;5154048;27;20084;-76
2021/12/04 05:30:16;;;;;;;19.20;12.25;;;4.50;99.90;;;;;;5133252;27;20042;-76
2021/12/04 05:32:42;;;;;;;18.73;12.48;;;4.40;99.90;;;;;;5153267;27;20031;-75
2021/12/04 05:35:08;;;;;;;18.33;12.55;;;4.40;99.90;;;;;;5154068;27;20537;-76
2021/12/04 05:37:34;;;;;;;19.65;12.63;;;4.40;99.90;;;;;;5153057;27;20121;-75
2021/12/04 05:40:00;;;;;;;16.52;12.43;;;4.40;99.90;;;;;;5154203;27;20122;-76
2021/12/04 05:42:26;;;;;;;19.88;13.07;;;4.40;99.90;;;;;;5136337;27;20046;-76
2021/12/04 05:44:53;;;;;;;18.08;12.63;;;4.40;99.90;;;;;;5153191;27;20085;-75
2021/12/04 05:47:27;;;;;;;21.90;13.05;;;4.40;99.90;;;;;;5135090;27;20057;-75
2021/12/04 05:50:19;;;;;;;19.90;13.50;;;4.40;99.90;;;;;;5153531;27;20042;-75
2021/12/04 05:55:16;;;;;;;19.10;12.70;;;4.40;99.90;;;;;;5154149;27;20047;-76
2021/12/04 05:57:42;;;;;;;19.83;12.57;;;4.40;99.90;;;;;;5152309;27;20074;-75
2021/12/04 06:00:12;;;;;;;19.98;13.27;;;4.40;99.90;;;;;;5154016;27;20046;-76
2021/12/04 06:02:39;;;;;;;21.40;13.85;;;4.40;99.90;;;;;;5153443;27;20105;-75
2021/12/04 06:05:05;;;;;;;20.27;13.05;;;4.40;99.90;;;;;;5154072;27;20054;-75
2021/12/04 06:07:31;;;;;;;21.17;13.63;;;4.40;99.90;;;;;;5134605;27;20054;-76
2021/12/04 06:09:56;;;;;;;21.35;12.93;;;4.40;99.90;;;;;;5153067;27;20065;-76
2021/12/04 06:12:22;;;;;;;19.27;12.82;;;4.40;99.90;;;;;;5154000;27;20039;-76
2021/12/04 06:14:49;;;;;;;21.20;13.45;;;4.40;99.90;;;;;;5153344;27;20138;-76
2021/12/04 06:17:18;;;;;;;18.85;12.80;;;4.40;99.90;;;;;;5135534;27;20042;-76
2021/12/04 06:22:43;;;;;;;18.98;12.93;;;4.40;99.90;;;;;;5135935;27;20058;-76
2021/12/04 06:25:19;;;;;;;19.95;13.18;;;4.40;99.90;;;;;;5153827;27;20042;-77
2021/12/04 06:27:45;;;;;;;17.73;12.63;;;4.40;99.90;;;;;;5153276;27;20046;-76
2021/12/04 06:30:14;;;;;;;18.55;12.80;;;4.40;99.90;;;;;;5153367;27;20054;-77
2021/12/04 06:32:41;;;;;;;20.70;13.70;;;4.40;99.90;;;;;;5152991;27;20039;-76
2021/12/04 06:35:09;;;;;;;19.08;13.13;;;4.40;99.90;;;;;;5153696;27;20099;-77
2021/12/04 06:37:35;;;;;;;19.23;12.68;;;4.40;99.90;;;;;;5136974;27;20118;-76
2021/12/04 06:40:04;;;;;;;22.38;13.95;;;4.40;99.90;;;;;;5131719;27;20074;-76
2021/12/04 06:42:29;;;;;;;19.88;12.85;;;4.40;99.90;;;;;;5135322;27;20046;-77
2021/12/04 06:44:56;;;;;;;18.17;12.65;;;4.50;99.90;;;;;;5153233;27;20058;-77
2021/12/04 06:47:23;;;;;;;19.50;12.60;;;4.40;99.90;;;;;;5153069;27;20057;-77
2021/12/04 06:49:51;;;;;;;20.90;13.50;;;4.40;99.90;;;;;;5152961;27;20043;-76
2021/12/04 06:52:21;;;;;;;21.75;13.25;;;4.40;99.90;;;;;;5153726;27;20383;-77
2021/12/04 06:54:58;;;;;;;21.87;13.47;;;4.40;99.90;;;;;;5152435;27;20050;-77
2021/12/04 06:57:24;;;;;;;20.83;12.93;;;4.40;99.90;;;;;;5153876;27;20054;-77
2021/12/04 06:59:53;;;;;;;19.27;12.73;;;4.40;99.90;;;;;;5134421;27;20499;-76
2021/12/04 07:02:20;;;;;;;21.58;12.88;;;4.50;99.90;;;;;;5134945;27;20055;-76
2021/12/04 07:04:46;;;;;;;23.20;13.52;;;4.50;99.90;;;;;;5140886;27;20074;-76
2021/12/04 07:07:13;;;;;;;23.38;12.98;;;4.50;99.90;;;;;;5132889;27;20050;-77
2021/12/04 07:09:39;;;;;;;22.42;13.70;;;4.50;99.90;;;;;;5115912;27;20061;-77
2021/12/04 07:12:05;;;;;;;22.33;12.82;;;4.50;99.90;;;;;;5156898;27;20165;-76
2021/12/04 07:14:32;;;;;;;25.23;14.27;;;4.50;99.90;;;;;;5156504;27;20402;-77
2021/12/04 07:17:01;;;;;;;27.13;13.40;;;4.50;99.90;;;;;;5156003;27;20039;-77
2021/12/04 07:19:26;;;;;;;27.50;14.02;;;4.50;99.90;;;;;;5138957;27;20043;-76
2021/12/04 07:21:52;;;;;;;26.33;14.50;;;4.50;99.90;;;;;;5156758;27;20043;-76
2021/12/04 07:24:18;;;;;;;30.33;15.75;;;4.50;99.90;;;;;;5156536;27;20043;-77
2021/12/04 07:26:44;;;;;;;28.98;14.88;;;4.50;99.90;;;;;;5156047;27;20049;-74
2021/12/04 07:29:10;;;;;;;30.55;15.50;;;4.50;99.90;;;;;;5157010;27;20473;-76
2021/12/04 07:31:39;;;;;;;29.65;15.65;;;4.50;99.90;;;;;;5156257;27;20082;-76
2021/12/04 07:34:06;;;;;;;30.73;15.23;;;4.50;99.90;;;;;;5140981;27;20095;-76
2021/12/04 07:36:33;;;;;;;29.33;15.65;;;4.60;99.90;;;;;;5156291;27;20403;-77
2021/12/04 07:38:59;;;;;;;37.88;16.23;;;4.60;99.90;;;;;;5137526;27;20394;-77
2021/12/04 07:41:26;;;;;;;29.00;15.07;;;4.50;99.90;;;;;;5157067;27;20129;-77
2021/12/04 07:43:52;;;;;;;32.63;15.68;;;4.50;99.90;;;;;;5155540;27;20097;-76
2021/12/04 07:46:18;;;;;;;38.97;15.82;;;4.50;99.90;;;;;;5155507;27;20529;-79
2021/12/04 07:48:44;;;;;;;33.90;16.02;;;4.50;99.90;;;;;;5137654;27;20046;-75
2021/12/04 07:51:11;;;;;;;36.13;16.75;;;4.60;99.90;;;;;;5155310;27;20042;-79
2021/12/04 07:53:37;;;;;;;37.75;16.17;;;4.50;99.90;;;;;;5153688;27;20030;-79
2021/12/04 07:56:03;;;;;;;35.97;15.85;;;4.50;99.90;;;;;;5155735;27;20170;-79
2021/12/04 07:58:30;;;;;;;41.10;16.63;;;4.50;99.90;;;;;;5156131;27;20065;-78
2021/12/04 08:00:56;;;;;;;41.33;15.95;;;4.60;99.90;;;;;;5156037;27;20049;-78
2021/12/04 08:03:21;;;;;;;39.58;16.45;;;4.60;99.90;;;;;;5156051;27;20039;-79
2021/12/04 08:05:49;;;;;;;38.83;16.15;;;4.60;99.90;;;;;;5156071;27;20053;-75
2021/12/04 08:08:15;;;;;;;44.17;17.10;;;4.60;99.90;;;;;;5138130;27;20079;-79
2021/12/04 08:10:41;;;;;;;39.47;16.35;;;4.60;99.90;;;;;;5156259;27;20069;-79
2021/12/04 08:13:07;;;;;;;39.53;16.98;;;4.60;99.90;;;;;;5154754;27;20788;-79
2021/12/04 08:15:35;;;;;;;39.80;16.27;;;4.60;99.90;;;;;;5156106;27;20050;-79
2021/12/04 08:18:01;;;;;;;45.45;16.70;;;4.60;99.90;;;;;;5155570;27;20049;-79
2021/12/04 08:20:27;;;;;;;40.45;16.55;;;4.70;99.90;;;;;;5153855;27;20046;-79
2021/12/04 08:22:52;;;;;;;38.15;16.33;;;4.60;99.90;;;;;;5155878;27;20043;-79
2021/12/04 08:25:19;;;;;;;41.70;16.35;;;4.60;99.90;;;;;;5156204;27;20103;-79
2021/12/04 08:27:48;;;;;;;39.20;17.65;;;4.70;99.90;;;;;;5156101;27;20039;-79
2021/12/04 08:30:19;;;;;;;39.55;17.13;;;4.70;99.90;;;;;;5155597;27;20043;-79
2021/12/04 08:32:45;;;;;;;44.45;17.17;;;4.70;99.90;;;;;;5154914;27;21556;-78
2021/12/04 08:35:13;;;;;;;45.00;17.02;;;4.70;99.90;;;;;;5154593;27;20189;-79
2021/12/04 08:37:39;;;;;;;46.35;17.13;;;4.70;99.90;;;;;;5136687;27;20077;-79
2021/12/04 08:40:11;;;;;;;41.45;16.75;;;4.70;99.90;;;;;;5136470;27;20050;-78
2021/12/04 08:42:39;;;;;;;45.85;17.75;;;4.70;99.90;;;;;;5155529;27;20043;-79
2021/12/04 08:45:05;;;;;;;39.35;16.92;;;4.70;99.90;;;;;;5147473;27;20059;-75
2021/12/04 08:47:33;;;;;;;36.95;15.85;;;4.80;99.90;;;;;;5146628;27;20043;-75
2021/12/04 08:49:58;;;;;;;49.72;16.92;;;4.80;99.90;;;;;;5141489;27;20050;-76
2021/12/04 08:52:24;;;;;;;42.88;15.90;;;4.80;99.90;;;;;;5138811;27;20086;-78
2021/12/04 08:54:50;;;;;;;41.47;16.65;;;4.80;99.90;;;;;;5136869;27;20047;-79
2021/12/04 08:57:16;;;;;;;40.55;15.95;;;4.80;99.90;;;;;;5148032;27;20049;-79
2021/12/04 08:59:42;;;;;;;43.08;16.08;;;4.80;99.90;;;;;;5152824;27;20061;-79
2021/12/04 09:02:08;;;;;;;41.00;15.85;;;4.90;99.90;;;;;;5145197;27;20369;-78
2021/12/04 09:04:35;;;;;;;45.83;17.65;;;4.80;99.90;;;;;;5154293;27;20043;-80
2021/12/04 09:07:04;;;;;;;44.50;17.80;;;4.80;99.90;;;;;;5135575;27;20061;-79
2021/12/04 09:09:30;;;;;;;43.75;17.60;;;4.80;99.90;;;;;;5151245;27;20049;-79
2021/12/04 09:12:00;;;;;;;45.88;19.20;;;4.80;99.90;;;;;;5151328;27;20034;-79
2021/12/04 09:14:30;;;;;;;49.20;19.30;;;4.80;99.90;;;;;;5154444;27;20046;-80
2021/12/04 09:17:00;;;;;;;51.28;20.08;;;4.90;99.90;;;;;;5150240;27;20125;-76
2021/12/04 09:19:26;;;;;;;52.42;19.60;;;4.90;99.90;;;;;;5133883;27;20056;-79
2021/12/04 09:21:53;;;;;;;47.17;18.73;;;4.90;99.90;;;;;;5129369;27;20078;-79
2021/12/04 09:24:26;;;;;;;45.40;18.77;;;4.90;99.90;;;;;;5131594;27;20035;-79
2021/12/04 09:27:19;;;;;;;55.92;18.88;;;4.90;99.90;;;;;;5128534;27;20488;-79
2021/12/04 09:59:13;;;;;;;54.58;19.23;;;4.90;99.90;;;;;;5144430;27;20035;-79
2021/12/04 10:02:31;;;;;;;51.00;20.50;;;5.10;99.90;;;;;;5106662;27;20441;-79
2021/12/04 10:19:03;;;;;;;59.10;23.10;;;5.20;99.90;;;;;;5129002;27;20467;-78
2021/12/04 10:32:29;;;;;;;42.20;19.13;;;5.40;99.90;;;;;;5097200;27;20043;-77
2021/12/04 10:35:08;;;;;;;39.17;19.65;;;5.40;99.90;;;;;;5111934;27;20047;-75
2021/12/04 10:37:43;;;;;;;39.20;18.83;;;5.40;99.90;;;;;;5149619;27;20045;-76
2021/12/04 10:40:09;;;;;;;41.08;19.55;;;5.40;99.90;;;;;;5152985;27;20050;-78
2021/12/04 10:42:49;;;;;;;40.58;19.30;;;5.40;99.90;;;;;;5130753;27;20087;-77
2021/12/04 10:45:15;;;;;;;43.70;19.77;;;5.40;99.90;;;;;;5139084;27;20055;-76
2021/12/04 10:47:56;;;;;;;48.17;21.38;;;5.40;99.90;;;;;;5136549;27;20051;-77
2021/12/04 10:52:57;;;;;;;45.45;20.75;;;5.40;99.90;;;;;;5142343;27;20392;-76
2021/12/04 11:00:43;;;;;;;50.58;23.17;;;5.40;99.90;;;;;;5152310;27;20054;-76
2021/12/04 11:03:27;;;;;;;57.80;24.42;;;5.50;99.90;;;;;;5147109;27;20483;-74
2021/12/04 11:39:07;;;;;;;75.80;28.70;;;5.40;99.90;;;;;;5140621;27;20411;-75
2021/12/04 11:49:24;;;;;;;73.20;28.05;;;5.30;99.90;;;;;;5149325;27;20407;-76
2021/12/04 11:52:04;;;;;;;72.63;29.30;;;5.30;99.90;;;;;;5139296;27;20493;-76
2021/12/04 11:54:31;;;;;;;66.53;29.45;;;5.40;99.90;;;;;;5144807;27;20711;-76
2021/12/04 11:57:00;;;;;;;70.85;29.13;;;5.40;99.90;;;;;;5151342;27;20046;-76
2021/12/04 11:59:27;;;;;;;68.57;29.00;;;5.40;99.90;;;;;;5149548;27;20395;-76
2021/12/04 12:02:01;;;;;;;72.13;29.13;;;5.50;99.90;;;;;;5139443;27;20570;-75
2021/12/04 12:04:39;;;;;;;61.97;25.63;;;5.60;99.90;;;;;;5143627;27;20113;-76
2021/12/04 12:07:23;;;;;;;58.90;25.95;;;5.60;99.90;;;;;;5118400;27;20047;-76
2021/12/04 12:10:10;;;;;;;57.47;25.60;;;5.60;99.90;;;;;;5148162;27;20125;-74
2021/12/04 12:12:38;;;;;;;59.30;27.67;;;5.60;99.90;;;;;;5131180;27;20039;-76
2021/12/04 12:15:32;;;;;;;64.75;26.67;;;5.60;99.90;;;;;;5133983;27;20099;-76
2021/12/04 12:18:21;;;;;;;64.97;30.02;;;5.60;99.90;;;;;;5140514;27;20047;-76
2021/12/04 12:20:52;;;;;;;61.30;28.42;;;5.60;99.90;;;;;;5150118;27;20035;-77
2021/12/04 12:23:23;;;;;;;61.35;27.30;;;5.50;99.90;;;;;;5120319;27;20051;-76
2021/12/04 12:26:36;;;;;;;67.90;29.77;;;5.50;99.90;;;;;;5136349;27;20043;-77
2021/12/04 12:37:25;;;;;;;67.57;29.23;;;5.40;99.90;;;;;;5150027;27;20047;-74
2021/12/04 12:40:04;;;;;;;65.90;28.52;;;5.40;99.90;;;;;;5145407;27;20134;-75
2021/12/04 12:42:39;;;;;;;75.18;29.88;;;5.40;99.90;;;;;;5127303;27;20283;-76
2021/12/04 12:45:17;;;;;;;68.13;28.85;;;5.40;99.90;;;;;;5116404;27;20047;-76
2021/12/04 12:48:04;;;;;;;69.75;29.98;;;5.40;99.90;;;;;;5145921;27;20045;-76
2021/12/04 12:50:46;;;;;;;62.55;28.83;;;5.40;99.90;;;;;;5144117;27;20042;-76
2021/12/04 12:53:19;;;;;;;65.90;29.38;;;5.30;99.90;;;;;;5149036;27;20034;-76
2021/12/04 12:55:50;;;;;;;68.78;28.98;;;5.30;99.90;;;;;;5137395;27;20046;-75
2021/12/04 12:58:27;;;;;;;66.60;29.55;;;5.30;99.90;;;;;;5141310;27;20126;-74
2021/12/04 13:12:21;;;;;;;65.53;29.25;;;5.40;99.90;;;;;;5144859;27;20138;-74
2021/12/04 13:14:51;;;;;;;64.88;29.35;;;5.40;99.90;;;;;;5151176;27;20622;-74
2021/12/04 13:17:29;;;;;;;63.65;27.50;;;5.40;99.90;;;;;;5128270;27;20098;-74
2021/12/04 13:19:57;;;;;;;65.65;28.38;;;5.40;99.90;;;;;;5138651;27;20046;-76
2021/12/04 13:22:28;;;;;;;66.65;27.20;;;5.40;99.90;;;;;;5143803;27;20058;-74
2021/12/04 13:24:58;;;;;;;56.38;27.42;;;5.40;99.90;;;;;;5151031;27;20643;-76
2021/12/04 13:30:09;;;;;;;61.63;27.75;;;5.40;99.90;;;;;;5137643;27;20495;-77
2021/12/04 13:32:41;;;;;;;59.58;26.65;;;5.40;99.90;;;;;;5124914;27;20030;-76
2021/12/04 13:35:18;;;;;;;59.38;27.42;;;5.40;99.90;;;;;;5134359;27;20130;-78
2021/12/04 13:37:44;;;;;;;57.15;25.92;;;5.50;99.90;;;;;;5144974;27;20050;-76
2021/12/04 13:40:15;;;;;;;55.72;26.85;;;5.50;99.90;;;;;;5132289;27;20152;-76
2021/12/04 13:42:41;;;;;;;58.75;26.52;;;5.60;99.90;;;;;;5147614;27;20390;-77
2021/12/04 13:45:11;;;;;;;58.05;25.60;;;5.50;99.90;;;;;;5133606;27;20441;-75
2021/12/04 13:47:38;;;;;;;52.13;25.90;;;5.60;99.90;;;;;;5126159;27;20126;-76
2021/12/04 13:52:52;;;;;;;60.83;27.08;;;5.60;99.90;;;;;;5151683;27;20046;-75
2021/12/04 13:55:18;;;;;;;58.15;26.58;;;5.60;99.90;;;;;;5121531;27;20535;-76
2021/12/04 13:57:45;;;;;;;55.13;26.30;;;5.60;99.90;;;;;;5148229;27;20406;-76
2021/12/04 14:00:13;;;;;;;58.78;25.42;;;5.50;99.90;;;;;;5146261;27;20051;-76
2021/12/04 14:02:39;;;;;;;53.05;25.52;;;5.50;99.90;;;;;;5149434;27;20039;-75
2021/12/04 14:05:21;;;;;;;51.67;24.60;;;5.50;99.90;;;;;;5150015;27;20046;-76
2021/12/04 14:07:59;;;;;;;58.83;26.27;;;5.50;99.90;;;;;;5117906;27;20131;-76
2021/12/04 14:10:30;;;;;;;52.60;25.65;;;5.50;99.90;;;;;;5138908;27;20039;-74
2021/12/04 14:12:57;;;;;;;55.25;26.17;;;5.50;99.90;;;;;;5131193;27;20117;-76
2021/12/04 14:15:25;;;;;;;52.22;25.95;;;5.50;99.90;;;;;;5121813;27;20055;-74
2021/12/04 14:17:59;;;;;;;55.13;25.27;;;5.50;99.90;;;;;;5153527;27;20111;-75
2021/12/04 14:20:26;;;;;;;52.30;25.45;;;5.50;99.90;;;;;;5153094;27;20046;-76
2021/12/04 14:22:54;;;;;;;52.88;25.63;;;5.50;99.90;;;;;;5139315;27;20383;-76
2021/12/04 14:25:22;;;;;;;49.65;25.33;;;5.50;99.90;;;;;;5134949;27;20045;-75
2021/12/04 14:27:49;;;;;;;52.88;26.17;;;5.50;99.90;;;;;;5150244;27;20031;-76
2021/12/04 14:30:19;;;;;;;50.90;25.30;;;5.50;99.90;;;;;;5144604;27;20115;-75
2021/12/04 14:32:52;;;;;;;53.17;26.30;;;5.50;99.90;;;;;;5140417;27;20269;-76
2021/12/04 14:35:19;;;;;;;48.60;25.10;;;5.40;99.90;;;;;;5152256;27;20038;-76
2021/12/04 14:37:48;;;;;;;47.10;25.00;;;5.40;99.90;;;;;;5139327;27;20034;-74
2021/12/04 14:40:21;;;;;;;49.47;25.23;;;5.40;99.90;;;;;;5145035;27;20046;-76
2021/12/04 14:42:49;;;;;;;46.65;24.90;;;5.40;99.90;;;;;;5139451;27;20039;-75
2021/12/04 14:45:24;;;;;;;46.38;24.90;;;5.40;99.90;;;;;;5151750;27;20189;-76
2021/12/04 14:47:55;;;;;;;50.22;25.80;;;5.40;99.90;;;;;;5129814;27;20050;-75
2021/12/04 14:50:23;;;;;;;46.80;24.90;;;5.50;99.90;;;;;;5141359;27;20134;-75
2021/12/04 14:52:52;;;;;;;52.40;26.45;;;5.40;99.90;;;;;;5143849;27;20031;-74
2021/12/04 14:55:28;;;;;;;52.08;26.42;;;5.40;99.90;;;;;;5147795;27;20109;-74
2021/12/04 14:57:55;;;;;;;53.10;27.45;;;5.40;99.90;;;;;;5141696;27;20403;-75
2021/12/04 15:00:25;;;;;;;51.08;26.10;;;5.40;99.90;;;;;;5121881;27;20369;-74
2021/12/04 15:03:00;;;;;;;47.78;25.08;;;5.40;99.90;;;;;;5145583;27;20045;-75
2021/12/04 15:05:37;;;;;;;49.95;25.38;;;5.40;99.90;;;;;;5134782;27;20046;-74
2021/12/04 15:08:09;;;;;;;43.42;23.77;;;5.40;99.90;;;;;;5150920;27;20566;-75
2021/12/04 15:10:35;;;;;;;43.70;23.63;;;5.40;99.90;;;;;;5144622;27;20039;-73
2021/12/04 15:13:01;;;;;;;43.65;22.55;;;5.40;99.90;;;;;;5126261;27;20035;-85
2021/12/04 15:15:29;;;;;;;40.63;23.35;;;5.40;99.90;;;;;;5146294;27;20039;-73
2021/12/04 15:17:58;;;;;;;43.08;23.17;;;5.40;99.90;;;;;;5137132;27;20058;-75
2021/12/04 15:20:31;;;;;;;44.33;22.90;;;5.40;99.90;;;;;;5146016;27;20046;-75
2021/12/04 15:23:00;;;;;;;42.13;24.30;;;5.30;99.90;;;;;;5148835;27;20066;-76
2021/12/04 15:25:30;;;;;;;36.53;22.20;;;5.40;99.90;;;;;;5129677;27;20050;-75
2021/12/04 15:27:57;;;;;;;41.83;22.73;;;5.30;99.90;;;;;;5139479;27;20053;-76
2021/12/04 15:30:24;;;;;;;38.47;22.00;;;5.30;99.90;;;;;;5115236;27;20042;-76
2021/12/04 15:32:51;;;;;;;40.00;23.25;;;5.30;99.90;;;;;;5136143;27;20039;-76
2021/12/04 15:35:34;;;;;;;39.17;23.05;;;5.30;99.90;;;;;;5129896;27;20047;-75
2021/12/04 15:38:06;;;;;;;36.55;23.00;;;5.30;99.90;;;;;;5138834;27;20491;-75
2021/12/04 15:40:47;;;;;;;37.88;23.15;;;5.30;99.90;;;;;;5151800;27;20039;-75
2021/12/04 15:43:26;;;;;;;37.85;22.52;;;5.40;99.90;;;;;;5139896;27;20051;-74
2021/12/04 15:54:46;;;;;;;37.30;23.70;;;5.30;99.90;;;;;;5148322;27;20062;-75
2021/12/04 15:57:14;;;;;;;38.08;24.65;;;5.30;99.90;;;;;;5146479;27;20047;-76
2021/12/04 15:59:46;;;;;;;40.05;24.77;;;5.30;99.90;;;;;;5144364;27;20449;-75
2021/12/04 16:02:15;;;;;;;36.58;23.42;;;5.30;99.90;;;;;;5141334;27;20402;-77
2021/12/04 16:04:44;;;;;;;42.75;25.23;;;5.30;99.90;;;;;;5145609;27;20398;-76
2021/12/04 16:07:20;;;;;;;42.40;24.67;;;5.30;99.90;;;;;;5135999;27;20073;-75